aviador You're here:

CYHM Decoded Metar

HAMILTON in ON, CANADA
Report Time2018-05-27 05:00:00
UTC Time2018-05-27 05:18:14
Flight Rules vfr VFR
Wind100° at 04 kt
W.Decomp.*RWY 12: 3.9 kt HW 0.7 kt LCW
RWY 06: 2.6 kt HW 3.1 kt RCW
W.Rank100° ranks 31
Current wind is below 100° avg. (5.0)
Visibility9999 m
Phenomena:N/A
Clouds:Scattered 150 Hf
Scattered 250 Hf
Expected CloudBase > 800 ft AGL from Temp-Dew spread
CeilingNone
Temp17°C (ISA +4)
Dew Point15°C (88% RH)
QNH1012 hPa
Density Alt1,463 ft
Elevation781 ft
Report Wrong Elevation
Raw Report
CYHM 270500Z 10004KT 15SM SCT150 SCT250 17/15 A2987 RMK AC3CI1 CI
TR SLP115 DENSITY ALT 1300FT=

Extra information for CYHM:More info

Metar Taf Metar & Taf Last 4 Metars F.Rules Stats Wind Profile Meteogram Temp Stats Airport Information Weather charts Add Link Nearby VenuesMetar ALERT Operation Metar Decoded Social comments